Time;durP1;ratioP1;P1;durP2;ratioP2;P2;SDS_P1;SDS_P2;PMS_P1;PMS_P2;Temp;Humidity;BMP_temperature;BMP_pressure;BME280_temperature;BME280_humidity;BME280_pressure;Samples;Min_cycle;Max_cycle;Signal;HPM_P1;HPM_P2
2024/01/20 00:02:26;;;;;;;19.67;12.90;;;-3.20;99.90;;;;;;5075629;28;20318;-71
2024/01/20 00:04:53;;;;;;;19.23;11.83;;;-3.20;99.90;;;;;;5075678;28;20234;-71
2024/01/20 00:07:20;;;;;;;19.03;12.43;;;-3.20;99.90;;;;;;5075609;28;20652;-72
2024/01/20 00:09:47;;;;;;;16.90;10.83;;;-3.20;99.90;;;;;;5075595;28;20560;-71
2024/01/20 00:12:15;;;;;;;18.63;11.40;;;-3.10;99.90;;;;;;5075793;28;20204;-71
2024/01/20 00:14:42;;;;;;;21.53;11.73;;;-3.00;99.90;;;;;;5075719;28;20390;-70
2024/01/20 00:17:09;;;;;;;19.57;11.70;;;-3.00;99.90;;;;;;5075588;28;20203;-70
2024/01/20 00:19:36;;;;;;;19.17;12.00;;;-3.00;99.90;;;;;;5075812;28;20222;-71
2024/01/20 00:22:03;;;;;;;20.73;11.40;;;-3.00;99.90;;;;;;5075590;28;20621;-71
2024/01/20 00:24:30;;;;;;;17.37;10.83;;;-2.90;99.90;;;;;;5075162;28;20517;-70
2024/01/20 00:26:57;;;;;;;15.27;11.13;;;-2.90;99.90;;;;;;5077841;28;20199;-70
2024/01/20 00:29:25;;;;;;;16.33;11.50;;;-2.90;99.90;;;;;;5095565;28;20199;-71
2024/01/20 00:31:55;;;;;;;18.90;10.13;;;-2.90;99.90;;;;;;5095546;28;20792;-70
2024/01/20 00:34:22;;;;;;;21.57;11.43;;;-3.00;99.90;;;;;;5095315;28;20665;-71
2024/01/20 00:36:49;;;;;;;17.03;11.27;;;-2.90;99.90;;;;;;5098000;28;20196;-70
2024/01/20 00:39:15;;;;;;;16.60;11.07;;;-3.00;99.90;;;;;;5099699;28;20234;-71
2024/01/20 00:41:42;;;;;;;17.87;10.80;;;-3.10;99.90;;;;;;5100595;28;20576;-71
2024/01/20 00:44:09;;;;;;;14.73;9.97;;;-3.00;99.90;;;;;;5098176;28;20238;-71
2024/01/20 00:46:37;;;;;;;15.83;10.80;;;-3.10;99.90;;;;;;5100003;28;20663;-71
2024/01/20 00:49:04;;;;;;;16.90;10.57;;;-3.20;99.90;;;;;;5097931;28;20196;-72
2024/01/20 00:51:31;;;;;;;20.57;10.93;;;-3.20;99.90;;;;;;5095869;28;20226;-71
2024/01/20 00:53:58;;;;;;;18.27;10.60;;;-3.20;99.90;;;;;;5095114;28;20662;-71
2024/01/20 00:56:24;;;;;;;18.50;10.63;;;-3.20;99.90;;;;;;5095005;28;20196;-71
2024/01/20 00:58:51;;;;;;;15.33;10.47;;;-3.20;99.90;;;;;;5094845;28;20196;-71
2024/01/20 01:01:18;;;;;;;15.57;10.13;;;-3.20;99.90;;;;;;5095012;28;20203;-71
2024/01/20 01:03:46;;;;;;;16.23;11.03;;;-3.10;99.90;;;;;;5094980;28;20259;-71
2024/01/20 01:06:12;;;;;;;16.50;10.40;;;-3.10;99.90;;;;;;5094911;28;20293;-71
2024/01/20 01:08:39;;;;;;;18.63;11.43;;;-3.10;99.90;;;;;;5094835;28;20231;-71
2024/01/20 01:11:06;;;;;;;16.30;11.00;;;-3.20;99.90;;;;;;5094698;28;20204;-71
2024/01/20 01:13:35;;;;;;;19.37;12.33;;;-3.20;99.90;;;;;;5094492;28;20560;-71
2024/01/20 01:16:02;;;;;;;20.67;12.40;;;-3.20;99.90;;;;;;5094837;28;20253;-72
2024/01/20 01:18:28;;;;;;;22.80;12.90;;;-3.20;99.90;;;;;;5094593;28;20256;-71
2024/01/20 01:20:56;;;;;;;21.50;12.43;;;-3.20;99.90;;;;;;5094646;28;20264;-72
2024/01/20 01:23:23;;;;;;;17.83;12.50;;;-3.10;99.90;;;;;;5094448;28;20248;-71
2024/01/20 01:25:50;;;;;;;20.07;12.30;;;-3.10;99.90;;;;;;5094278;28;20281;-71
2024/01/20 01:28:17;;;;;;;21.27;12.03;;;-3.20;99.90;;;;;;5094228;28;20220;-71
2024/01/20 01:30:43;;;;;;;18.50;11.83;;;-3.20;99.90;;;;;;5094269;28;20248;-71
2024/01/20 01:33:10;;;;;;;17.77;11.37;;;-3.20;99.90;;;;;;5093792;28;20214;-71
2024/01/20 01:35:37;;;;;;;16.27;11.33;;;-3.20;99.90;;;;;;5094277;28;20558;-71
2024/01/20 01:38:05;;;;;;;19.30;11.77;;;-3.40;99.90;;;;;;5094037;28;20197;-71
2024/01/20 01:40:31;;;;;;;20.30;12.80;;;-3.40;99.90;;;;;;5093851;28;20203;-70
2024/01/20 01:42:58;;;;;;;20.87;11.30;;;-3.40;99.90;;;;;;5094286;28;20341;-71
2024/01/20 01:45:25;;;;;;;19.50;12.50;;;-3.30;99.90;;;;;;5094114;28;20227;-71
2024/01/20 01:47:54;;;;;;;19.60;12.83;;;-3.30;99.90;;;;;;5094057;28;20207;-71
2024/01/20 01:50:21;;;;;;;20.23;13.40;;;-3.30;99.90;;;;;;5093951;28;20600;-71
2024/01/20 01:52:50;;;;;;;22.50;12.93;;;-3.30;99.90;;;;;;5093786;28;20608;-71
2024/01/20 01:55:19;;;;;;;22.17;13.13;;;-3.30;99.90;;;;;;5093871;28;20294;-71
2024/01/20 01:57:47;;;;;;;23.53;14.27;;;-3.30;99.90;;;;;;5093732;28;20199;-73
2024/01/20 02:00:14;;;;;;;19.07;13.00;;;-3.20;99.90;;;;;;5093806;28;20196;-71
2024/01/20 02:02:40;;;;;;;24.10;13.10;;;-3.30;99.90;;;;;;5093790;28;20198;-71
2024/01/20 02:05:07;;;;;;;19.10;11.80;;;-3.30;99.90;;;;;;5093441;28;20677;-71
2024/01/20 02:07:34;;;;;;;18.97;12.00;;;-3.30;99.90;;;;;;5093598;28;20259;-71
2024/01/20 02:10:01;;;;;;;21.00;13.20;;;-3.30;99.90;;;;;;5093540;28;20609;-70
2024/01/20 02:12:30;;;;;;;21.63;12.87;;;-3.30;99.90;;;;;;5093668;28;20263;-70
2024/01/20 02:14:58;;;;;;;19.77;11.70;;;-3.30;99.90;;;;;;5093577;28;20206;-71
2024/01/20 02:17:24;;;;;;;20.60;12.27;;;-3.30;99.90;;;;;;5093453;28;20204;-70
2024/01/20 02:19:51;;;;;;;22.03;13.63;;;-3.40;99.90;;;;;;5093342;28;20744;-71
2024/01/20 02:22:19;;;;;;;20.37;13.07;;;-3.50;99.90;;;;;;5093572;28;20202;-71
2024/01/20 02:24:48;;;;;;;22.13;13.87;;;-3.50;99.90;;;;;;5093338;28;20224;-70
2024/01/20 02:27:14;;;;;;;21.83;13.83;;;-3.50;99.90;;;;;;5093271;28;20229;-71
2024/01/20 02:29:41;;;;;;;20.20;12.33;;;-3.40;99.90;;;;;;5093307;28;20260;-70
2024/01/20 02:32:08;;;;;;;22.00;13.30;;;-3.60;99.90;;;;;;5093256;28;20202;-70
2024/01/20 02:34:37;;;;;;;24.50;13.90;;;-3.70;99.90;;;;;;5093091;28;20198;-70
2024/01/20 02:37:04;;;;;;;24.03;13.80;;;-3.60;99.90;;;;;;5093097;28;20717;-71
2024/01/20 02:39:32;;;;;;;23.47;14.73;;;-3.60;99.90;;;;;;5093289;28;20203;-71
2024/01/20 02:41:58;;;;;;;21.20;13.83;;;-3.50;99.90;;;;;;5093142;28;20245;-72
2024/01/20 02:44:25;;;;;;;24.17;14.73;;;-3.50;99.90;;;;;;5092175;28;20239;-71
2024/01/20 02:46:52;;;;;;;22.43;13.37;;;-3.50;99.90;;;;;;5092982;28;20203;-71
2024/01/20 02:49:19;;;;;;;18.73;13.50;;;-3.50;99.90;;;;;;5092862;28;20741;-71
2024/01/20 02:51:45;;;;;;;27.33;13.50;;;-3.60;99.90;;;;;;5093063;28;20209;-71
2024/01/20 02:54:12;;;;;;;20.43;14.60;;;-3.60;99.90;;;;;;5093096;28;20195;-72
2024/01/20 02:56:40;;;;;;;23.80;14.40;;;-3.60;99.90;;;;;;5092947;28;20199;-72
2024/01/20 02:59:06;;;;;;;23.33;15.77;;;-3.50;99.90;;;;;;5092716;28;20199;-72
2024/01/20 03:01:33;;;;;;;23.07;14.20;;;-3.50;99.90;;;;;;5092843;28;20248;-72
2024/01/20 03:04:00;;;;;;;24.10;15.50;;;-3.50;99.90;;;;;;5092740;28;20202;-72
2024/01/20 03:06:26;;;;;;;21.57;14.63;;;-3.50;99.90;;;;;;5092616;28;20642;-71
2024/01/20 03:08:53;;;;;;;23.93;13.27;;;-3.60;99.90;;;;;;5092765;28;20673;-72
2024/01/20 03:11:20;;;;;;;23.90;13.40;;;-3.60;99.90;;;;;;5092715;28;20256;-71
2024/01/20 03:13:48;;;;;;;20.50;13.70;;;-3.80;99.90;;;;;;5092783;28;20199;-71
2024/01/20 03:16:14;;;;;;;19.87;12.80;;;-3.80;99.90;;;;;;5092600;28;20220;-72
2024/01/20 03:18:41;;;;;;;18.77;12.67;;;-3.80;99.90;;;;;;5092845;28;20279;-72
2024/01/20 03:21:08;;;;;;;19.80;13.20;;;-3.90;99.90;;;;;;5092823;28;20202;-72
2024/01/20 03:23:35;;;;;;;24.00;13.47;;;-4.00;99.90;;;;;;5092666;28;20206;-72
2024/01/20 03:26:07;;;;;;;23.77;13.67;;;-4.00;99.90;;;;;;5092539;28;20225;-71
2024/01/20 03:28:34;;;;;;;23.70;13.63;;;-4.10;99.90;;;;;;5092530;28;20229;-72
2024/01/20 03:31:02;;;;;;;18.10;12.73;;;-3.90;99.90;;;;;;5092445;28;20252;-71
2024/01/20 03:33:29;;;;;;;22.10;13.53;;;-3.90;99.90;;;;;;5092752;28;20201;-72
2024/01/20 03:35:55;;;;;;;23.47;13.50;;;-3.90;99.90;;;;;;5092731;28;20284;-71
2024/01/20 03:38:22;;;;;;;21.33;14.40;;;-4.00;99.90;;;;;;5092622;28;20244;-72
2024/01/20 03:40:48;;;;;;;19.33;12.83;;;-4.10;99.90;;;;;;5092436;28;20258;-72
2024/01/20 03:43:15;;;;;;;23.17;13.20;;;-4.10;99.90;;;;;;5092438;28;20202;-72
2024/01/20 03:45:43;;;;;;;20.97;12.47;;;-4.10;99.90;;;;;;5092220;28;20693;-72
2024/01/20 03:48:11;;;;;;;25.57;13.47;;;-4.00;99.90;;;;;;5092593;28;20202;-72
2024/01/20 03:50:39;;;;;;;22.30;13.87;;;-4.00;99.90;;;;;;5092370;28;20654;-71
2024/01/20 03:53:05;;;;;;;20.87;12.50;;;-4.00;99.90;;;;;;5092433;28;20256;-71
2024/01/20 03:55:32;;;;;;;20.13;12.63;;;-4.10;99.90;;;;;;5099741;28;20222;-71
2024/01/20 03:57:59;;;;;;;25.00;13.20;;;-4.10;99.90;;;;;;5096047;28;20607;-71
2024/01/20 04:00:25;;;;;;;21.27;13.30;;;-4.10;99.90;;;;;;5096089;28;20622;-71
2024/01/20 04:02:52;;;;;;;17.93;12.37;;;-4.10;99.90;;;;;;5096033;28;20652;-71
2024/01/20 04:05:20;;;;;;;21.97;13.17;;;-4.20;99.90;;;;;;5095785;28;20229;-71
2024/01/20 04:07:47;;;;;;;20.17;13.27;;;-4.30;99.90;;;;;;5095987;28;20193;-71
2024/01/20 04:10:14;;;;;;;19.07;13.20;;;-4.40;99.90;;;;;;5095936;28;20194;-72
2024/01/20 04:12:41;;;;;;;21.70;12.93;;;-4.50;99.90;;;;;;5096231;28;20202;-72
2024/01/20 04:15:09;;;;;;;20.77;12.60;;;-4.30;99.90;;;;;;5096046;28;20263;-71
2024/01/20 04:17:35;;;;;;;24.53;14.97;;;-4.40;99.90;;;;;;5095790;28;20809;-72
2024/01/20 04:20:04;;;;;;;22.13;14.53;;;-4.30;99.90;;;;;;5095665;28;20213;-71
2024/01/20 04:22:32;;;;;;;20.63;14.07;;;-4.30;99.90;;;;;;5095633;28;20208;-71
2024/01/20 04:24:59;;;;;;;23.03;14.00;;;-4.30;99.90;;;;;;5095528;28;20744;-71
2024/01/20 04:27:25;;;;;;;20.97;14.33;;;-4.30;99.90;;;;;;5095600;28;20287;-71
2024/01/20 04:29:52;;;;;;;22.90;14.47;;;-4.30;99.90;;;;;;5095733;28;20246;-71
2024/01/20 04:32:18;;;;;;;22.77;14.13;;;-4.30;99.90;;;;;;5095534;28;20782;-71
2024/01/20 04:34:45;;;;;;;22.83;14.03;;;-4.40;99.90;;;;;;5095511;28;20219;-71
2024/01/20 04:37:12;;;;;;;21.87;12.60;;;-4.30;99.90;;;;;;5095456;28;20209;-71
2024/01/20 04:39:40;;;;;;;20.77;13.70;;;-4.30;99.90;;;;;;5095279;28;20248;-71
2024/01/20 04:42:07;;;;;;;23.60;14.47;;;-4.30;99.90;;;;;;5095490;28;20198;-72
2024/01/20 04:44:33;;;;;;;20.40;14.20;;;-4.30;99.90;;;;;;5095345;28;20247;-73
2024/01/20 04:47:00;;;;;;;22.17;14.80;;;-4.30;99.90;;;;;;5095285;28;20229;-72
2024/01/20 04:49:27;;;;;;;21.10;12.50;;;-4.30;99.90;;;;;;5095386;28;20252;-72
2024/01/20 04:51:53;;;;;;;22.83;13.03;;;-4.40;99.90;;;;;;5094983;28;20582;-72
2024/01/20 04:54:20;;;;;;;20.60;13.43;;;-4.50;99.90;;;;;;5094964;28;20201;-72
2024/01/20 04:56:48;;;;;;;18.47;12.30;;;-4.50;99.90;;;;;;5094965;28;20225;-72
2024/01/20 04:59:14;;;;;;;21.63;13.73;;;-4.40;99.90;;;;;;5095133;28;20252;-72
2024/01/20 05:01:41;;;;;;;23.67;14.37;;;-4.50;99.90;;;;;;5094976;28;20199;-72
2024/01/20 05:04:08;;;;;;;24.67;13.77;;;-4.40;99.90;;;;;;5094860;28;20223;-71
2024/01/20 05:06:34;;;;;;;22.87;12.87;;;-4.40;99.90;;;;;;5094688;28;20226;-72
2024/01/20 05:09:01;;;;;;;24.10;14.43;;;-4.50;99.90;;;;;;5093855;28;20239;-71
2024/01/20 05:11:28;;;;;;;22.30;13.80;;;-4.40;99.90;;;;;;5094852;28;20204;-71
2024/01/20 05:13:55;;;;;;;24.97;14.87;;;-4.40;99.90;;;;;;5094841;28;20203;-71
2024/01/20 05:16:22;;;;;;;20.37;13.70;;;-4.30;99.90;;;;;;5094687;28;20203;-71
2024/01/20 05:18:49;;;;;;;19.90;13.00;;;-4.50;99.90;;;;;;5094556;28;20204;-71
2024/01/20 05:21:16;;;;;;;21.57;13.70;;;-4.60;99.90;;;;;;5094493;28;20285;-71
2024/01/20 05:23:42;;;;;;;20.87;13.13;;;-4.70;99.90;;;;;;5094695;28;20209;-71
2024/01/20 05:26:09;;;;;;;21.60;13.30;;;-4.60;99.90;;;;;;5094561;28;20286;-71
2024/01/20 05:28:35;;;;;;;21.90;13.30;;;-4.50;99.90;;;;;;5094350;28;20227;-71
2024/01/20 05:31:04;;;;;;;22.73;13.83;;;-4.50;99.90;;;;;;5094379;28;20202;-71
2024/01/20 05:33:30;;;;;;;23.90;13.60;;;-4.50;99.90;;;;;;5094292;28;20205;-71
2024/01/20 05:35:57;;;;;;;22.70;14.67;;;-4.60;99.90;;;;;;5094272;28;20598;-71
2024/01/20 05:38:24;;;;;;;23.97;13.87;;;-4.50;99.90;;;;;;5094438;28;20202;-71
2024/01/20 05:40:51;;;;;;;24.07;13.90;;;-4.50;99.90;;;;;;5094148;28;20599;-71
2024/01/20 05:43:17;;;;;;;22.03;13.03;;;-4.50;99.90;;;;;;5094077;28;20628;-71
2024/01/20 05:45:44;;;;;;;25.83;14.10;;;-4.50;99.90;;;;;;5093991;28;20224;-71
2024/01/20 05:48:12;;;;;;;20.73;13.40;;;-4.60;99.90;;;;;;5094026;28;20611;-73
2024/01/20 05:50:39;;;;;;;20.30;13.87;;;-4.70;99.90;;;;;;5093957;28;20201;-72
2024/01/20 05:53:05;;;;;;;26.10;13.67;;;-4.70;99.90;;;;;;5094130;28;20192;-72
2024/01/20 05:55:32;;;;;;;24.30;14.27;;;-4.60;99.90;;;;;;5093789;28;20261;-72
2024/01/20 05:57:58;;;;;;;22.20;12.53;;;-4.60;99.90;;;;;;5093857;28;20651;-72
2024/01/20 06:00:25;;;;;;;23.63;13.40;;;-4.60;99.90;;;;;;5093820;28;20192;-72
2024/01/20 06:02:53;;;;;;;24.10;14.00;;;-4.60;99.90;;;;;;5093690;28;20245;-73
2024/01/20 06:05:21;;;;;;;24.73;14.03;;;-4.70;99.90;;;;;;5093859;28;20295;-72
2024/01/20 06:07:48;;;;;;;24.33;14.40;;;-4.70;99.90;;;;;;5093753;28;20261;-72
2024/01/20 06:10:15;;;;;;;23.83;15.40;;;-4.70;99.90;;;;;;5093353;28;20783;-71
2024/01/20 06:12:41;;;;;;;30.53;15.20;;;-4.70;99.90;;;;;;5093437;28;20277;-71
2024/01/20 06:15:09;;;;;;;22.40;14.33;;;-4.60;99.90;;;;;;5093546;28;20318;-71
2024/01/20 06:17:36;;;;;;;29.10;16.07;;;-4.50;99.90;;;;;;5093431;28;20202;-71
2024/01/20 06:20:03;;;;;;;24.17;15.20;;;-4.50;99.90;;;;;;5093564;28;20204;-72
2024/01/20 06:22:31;;;;;;;29.57;16.83;;;-4.50;99.90;;;;;;5093525;28;20200;-72
2024/01/20 06:24:58;;;;;;;24.20;15.93;;;-4.50;99.90;;;;;;5093294;28;20197;-72
2024/01/20 06:27:25;;;;;;;35.77;17.33;;;-4.60;99.90;;;;;;5093117;28;20290;-72
2024/01/20 06:29:51;;;;;;;24.07;14.93;;;-4.60;99.90;;;;;;5093262;28;20205;-72
2024/01/20 06:32:18;;;;;;;28.67;16.83;;;-4.60;99.90;;;;;;5093368;28;20604;-72
2024/01/20 06:34:44;;;;;;;38.83;17.30;;;-4.70;99.90;;;;;;5093134;28;20225;-71
2024/01/20 06:37:11;;;;;;;26.63;16.10;;;-4.70;99.90;;;;;;5093180;28;20294;-71
2024/01/20 06:39:41;;;;;;;26.40;16.20;;;-4.70;99.90;;;;;;5093179;28;20198;-71
2024/01/20 06:42:11;;;;;;;30.67;17.23;;;-4.70;99.90;;;;;;5093153;28;20194;-72
2024/01/20 06:44:37;;;;;;;27.73;16.87;;;-4.70;99.90;;;;;;5092932;28;20202;-72
2024/01/20 06:47:06;;;;;;;30.50;18.90;;;-4.80;99.90;;;;;;5093129;28;20240;-71
2024/01/20 06:49:33;;;;;;;29.60;17.00;;;-4.80;99.90;;;;;;5093144;28;20240;-71
2024/01/20 06:52:00;;;;;;;34.93;19.17;;;-4.90;99.90;;;;;;5093038;28;20602;-71
2024/01/20 06:54:26;;;;;;;30.67;17.97;;;-4.90;99.90;;;;;;5092982;28;20198;-72
2024/01/20 06:56:54;;;;;;;29.17;17.87;;;-4.90;99.90;;;;;;5092951;28;20197;-71
2024/01/20 06:59:21;;;;;;;35.07;18.33;;;-4.90;99.90;;;;;;5092783;28;20201;-71
2024/01/20 07:01:48;;;;;;;30.77;17.60;;;-5.00;99.90;;;;;;5093012;28;20193;-71
2024/01/20 07:04:14;;;;;;;37.20;18.50;;;-4.90;99.90;;;;;;5092811;28;20201;-72
2024/01/20 07:06:41;;;;;;;28.50;16.83;;;-4.80;99.90;;;;;;5092777;28;20561;-72
2024/01/20 07:09:07;;;;;;;33.97;18.60;;;-4.80;99.90;;;;;;5092734;28;20196;-72
2024/01/20 07:11:34;;;;;;;32.77;19.03;;;-4.80;99.90;;;;;;5092749;28;20201;-72
2024/01/20 07:14:02;;;;;;;33.37;19.03;;;-4.90;99.90;;;;;;5092673;28;20197;-71
2024/01/20 07:16:29;;;;;;;28.17;17.93;;;-4.80;99.90;;;;;;5092668;28;20709;-72
2024/01/20 07:18:56;;;;;;;31.43;19.90;;;-4.70;99.90;;;;;;5092927;28;20233;-72
2024/01/20 07:21:23;;;;;;;35.23;20.47;;;-4.60;99.90;;;;;;5092570;28;20652;-72
2024/01/20 07:23:49;;;;;;;35.90;19.60;;;-4.60;99.90;;;;;;5098650;28;20541;-73
2024/01/20 07:26:16;;;;;;;32.97;19.50;;;-4.70;99.90;;;;;;5092541;28;20217;-72
2024/01/20 07:28:43;;;;;;;33.80;19.20;;;-4.60;99.90;;;;;;5092436;28;20293;-72
2024/01/20 07:31:11;;;;;;;34.77;18.63;;;-4.50;99.90;;;;;;5094329;28;20610;-72
2024/01/20 07:33:38;;;;;;;39.40;19.43;;;-4.50;99.90;;;;;;5096753;28;20251;-71
2024/01/20 07:36:07;;;;;;;32.53;18.43;;;-4.50;99.90;;;;;;5096672;28;20219;-71
2024/01/20 07:38:33;;;;;;;31.90;19.23;;;-4.50;99.90;;;;;;5096395;28;20653;-72
2024/01/20 07:41:00;;;;;;;31.67;18.53;;;-4.50;99.90;;;;;;5096746;28;20208;-71
2024/01/20 07:43:27;;;;;;;34.43;19.47;;;-4.60;99.90;;;;;;5096619;28;20201;-72
2024/01/20 07:45:54;;;;;;;29.83;17.97;;;-4.50;99.90;;;;;;5096524;28;20208;-72
2024/01/20 07:48:22;;;;;;;31.27;17.50;;;-4.50;99.90;;;;;;5096397;28;20206;-71
2024/01/20 07:50:49;;;;;;;36.17;18.90;;;-4.70;99.90;;;;;;5096355;28;20205;-71
2024/01/20 07:53:15;;;;;;;36.77;19.70;;;-4.80;99.90;;;;;;5096250;28;20283;-72
2024/01/20 07:55:42;;;;;;;35.00;19.93;;;-4.70;99.90;;;;;;5096443;28;20247;-71
2024/01/20 07:58:09;;;;;;;38.93;21.13;;;-4.80;99.90;;;;;;5096283;28;20560;-72
2024/01/20 08:00:35;;;;;;;33.73;19.97;;;-4.70;99.90;;;;;;5096241;28;20216;-71
2024/01/20 08:03:02;;;;;;;32.57;19.03;;;-4.60;99.90;;;;;;5096034;28;20208;-72
2024/01/20 08:05:31;;;;;;;35.20;18.93;;;-4.70;99.90;;;;;;5096017;28;20266;-72
2024/01/20 08:07:58;;;;;;;37.73;19.87;;;-4.70;99.90;;;;;;5095839;28;20228;-72
2024/01/20 08:10:25;;;;;;;38.53;20.90;;;-4.60;99.90;;;;;;5095977;28;20196;-72
2024/01/20 08:12:52;;;;;;;36.27;20.47;;;-4.60;99.90;;;;;;5095957;28;20201;-72
2024/01/20 08:15:19;;;;;;;41.87;22.60;;;-4.50;99.90;;;;;;5095935;28;20204;-72
2024/01/20 08:17:45;;;;;;;35.73;19.83;;;-4.40;99.90;;;;;;5095935;28;20243;-72
2024/01/20 08:20:12;;;;;;;34.70;20.30;;;-4.20;99.90;;;;;;5095597;28;20227;-72
2024/01/20 08:22:40;;;;;;;42.10;23.00;;;-4.10;99.90;;;;;;5095658;28;20207;-72
2024/01/20 08:25:09;;;;;;;37.63;20.43;;;-4.10;99.90;;;;;;5095591;28;20657;-73
2024/01/20 08:27:36;;;;;;;37.20;22.07;;;-4.20;99.90;;;;;;5095620;28;20279;-72
2024/01/20 08:30:02;;;;;;;37.67;21.37;;;-4.10;99.90;;;;;;5095593;28;20264;-72
2024/01/20 08:32:29;;;;;;;42.70;21.23;;;-4.30;99.90;;;;;;5095420;28;20620;-72
2024/01/20 08:34:56;;;;;;;41.87;22.20;;;-4.20;99.90;;;;;;5095421;28;20198;-72
2024/01/20 08:37:22;;;;;;;61.30;37.67;;;-4.10;99.90;;;;;;5095528;28;20210;-72
2024/01/20 08:39:50;;;;;;;37.30;20.30;;;-4.20;99.90;;;;;;5095517;28;20194;-72
2024/01/20 08:42:17;;;;;;;36.60;19.93;;;-4.10;99.90;;;;;;5094046;28;20239;-72
2024/01/20 08:44:44;;;;;;;36.90;20.23;;;-4.10;99.90;;;;;;5095329;28;20289;-72
2024/01/20 08:47:10;;;;;;;36.97;20.37;;;-4.10;99.90;;;;;;5095184;28;20216;-72
2024/01/20 08:49:37;;;;;;;30.63;17.83;;;-3.90;99.90;;;;;;5094715;28;20199;-72
2024/01/20 08:52:04;;;;;;;38.00;19.87;;;-3.80;99.90;;;;;;5095094;28;20721;-73
2024/01/20 08:54:31;;;;;;;35.37;21.03;;;-3.70;99.90;;;;;;5095128;28;20221;-72
2024/01/20 08:56:59;;;;;;;33.70;20.03;;;-3.70;99.90;;;;;;5095044;28;20203;-72
2024/01/20 08:59:25;;;;;;;39.63;22.97;;;-3.50;99.90;;;;;;5095069;28;20203;-73
2024/01/20 09:01:52;;;;;;;35.23;20.87;;;-3.30;99.90;;;;;;5094837;28;20274;-72
2024/01/20 09:04:19;;;;;;;31.33;19.47;;;-3.20;99.90;;;;;;5094811;28;20253;-73
2024/01/20 09:06:45;;;;;;;34.33;21.93;;;-3.10;99.90;;;;;;5094836;28;20212;-72
2024/01/20 09:09:12;;;;;;;35.20;20.13;;;-3.10;99.90;;;;;;5094956;28;20662;-74
2024/01/20 09:11:39;;;;;;;31.67;19.37;;;-2.90;99.90;;;;;;5094597;28;20192;-74
2024/01/20 09:14:07;;;;;;;30.47;18.77;;;-2.70;99.90;;;;;;5094802;28;20245;-74
2024/01/20 09:16:34;;;;;;;35.77;19.57;;;-2.10;99.90;;;;;;5094486;28;20196;-74
2024/01/20 09:19:00;;;;;;;27.83;17.23;;;-1.60;99.90;;;;;;5094702;28;20261;-75
2024/01/20 09:21:27;;;;;;;29.17;17.43;;;-1.30;99.90;;;;;;5094423;28;20594;-74
2024/01/20 09:23:53;;;;;;;25.73;16.07;;;-1.10;99.90;;;;;;5094214;28;20659;-75
2024/01/20 09:26:20;;;;;;;22.60;15.17;;;-0.90;99.90;;;;;;5094475;28;20205;-74
2024/01/20 09:28:47;;;;;;;29.80;18.90;;;-0.90;99.90;;;;;;5094156;28;20239;-74
2024/01/20 09:31:15;;;;;;;25.73;16.50;;;-1.10;99.90;;;;;;5094078;28;20578;-74
2024/01/20 09:33:43;;;;;;;24.33;15.87;;;-1.60;99.90;;;;;;5094374;28;20204;-73
2024/01/20 09:36:10;;;;;;;26.10;16.43;;;-1.80;99.90;;;;;;5094366;28;20198;-73
2024/01/20 09:38:37;;;;;;;29.23;17.83;;;-1.90;99.90;;;;;;5094325;28;20265;-73
2024/01/20 09:41:09;;;;;;;23.57;16.17;;;-2.00;99.90;;;;;;5093981;28;20204;-73
2024/01/20 09:43:37;;;;;;;27.17;16.30;;;-2.20;99.90;;;;;;5094220;28;20192;-73
2024/01/20 09:46:04;;;;;;;23.93;15.13;;;-1.90;99.90;;;;;;5094052;28;20774;-72
2024/01/20 09:48:32;;;;;;;26.17;16.70;;;-1.60;99.90;;;;;;5094078;28;20228;-73
2024/01/20 09:50:58;;;;;;;21.63;15.60;;;-1.50;99.90;;;;;;5093878;28;20201;-72
2024/01/20 09:53:25;;;;;;;23.33;16.67;;;-1.40;99.90;;;;;;5093514;28;20650;-73
2024/01/20 09:55:52;;;;;;;26.97;16.63;;;-1.50;99.90;;;;;;5093842;28;20202;-73
2024/01/20 09:58:19;;;;;;;27.23;15.60;;;-1.30;99.90;;;;;;5093714;28;20198;-73
2024/01/20 10:00:47;;;;;;;21.97;15.90;;;-0.90;99.90;;;;;;5093741;28;20195;-77
2024/01/20 10:03:17;;;;;;;21.93;15.40;;;-0.90;99.90;;;;;;5093596;28;20727;-75
2024/01/20 10:05:45;;;;;;;23.40;15.70;;;-0.80;99.90;;;;;;5093758;28;20206;-72
2024/01/20 10:08:12;;;;;;;22.43;14.60;;;-0.70;99.90;;;;;;5093482;28;20220;-73
2024/01/20 10:10:39;;;;;;;23.10;16.20;;;-0.50;99.90;;;;;;5093663;28;20228;-73
2024/01/20 10:13:05;;;;;;;20.27;14.83;;;-0.20;99.90;;;;;;5093520;28;20257;-72
2024/01/20 10:15:33;;;;;;;21.60;14.40;;;-0.20;99.90;;;;;;5093435;28;20725;-74
2024/01/20 10:18:00;;;;;;;21.90;16.40;;;-0.20;99.90;;;;;;5093649;28;20222;-74
2024/01/20 10:20:31;;;;;;;22.80;15.43;;;0.00;99.90;;;;;;5093515;28;20206;-74
2024/01/20 10:23:01;;;;;;;21.37;16.03;;;0.40;99.90;;;;;;5093497;28;20200;-74
2024/01/20 10:25:28;;;;;;;27.07;17.97;;;0.90;99.90;;;;;;5093282;28;20197;-73
2024/01/20 10:27:54;;;;;;;23.67;18.70;;;0.90;99.90;;;;;;5093422;28;20765;-73
2024/01/20 10:30:22;;;;;;;24.17;16.93;;;1.70;99.90;;;;;;5100149;28;20234;-74
2024/01/20 10:32:50;;;;;;;19.20;16.03;;;2.10;99.90;;;;;;5093199;28;20230;-76
2024/01/20 10:35:16;;;;;;;19.27;16.30;;;3.10;99.90;;;;;;5091923;28;20253;-73
2024/01/20 10:37:46;;;;;;;20.57;17.50;;;4.40;99.90;;;;;;5072034;28;20200;-74
2024/01/20 10:40:14;;;;;;;19.53;16.37;;;5.40;99.90;;;;;;5072180;28;20204;-74
2024/01/20 10:42:45;;;;;;;18.33;15.80;;;5.50;99.90;;;;;;5072976;28;20215;-74
2024/01/20 10:45:16;;;;;;;18.43;15.77;;;6.10;99.90;;;;;;5055591;28;20197;-73
2024/01/20 10:48:00;;;;;;;19.93;15.47;;;6.40;99.90;;;;;;5052544;28;20796;-73
2024/01/20 10:50:27;;;;;;;19.43;14.50;;;4.80;99.90;;;;;;5052748;28;20542;-73
2024/01/20 10:52:54;;;;;;;24.10;16.20;;;4.80;99.70;;;;;;5052740;28;20557;-73
2024/01/20 10:55:24;;;;;;;21.53;17.20;;;4.70;99.90;;;;;;5052804;28;20243;-73
2024/01/20 10:57:52;;;;;;;19.97;15.70;;;4.40;99.90;;;;;;5052640;28;20209;-74
2024/01/20 11:00:20;;;;;;;22.00;17.50;;;5.00;99.90;;;;;;5070078;28;20239;-73
2024/01/20 11:02:47;;;;;;;19.90;16.53;;;6.60;99.90;;;;;;5072784;28;20197;-74
2024/01/20 11:05:22;;;;;;;21.00;17.80;;;7.50;98.30;;;;;;5071754;28;20212;-74
2024/01/20 11:07:57;;;;;;;23.27;18.13;;;8.60;94.50;;;;;;5072893;28;20228;-72
2024/01/20 11:10:25;;;;;;;21.77;17.10;;;9.30;92.10;;;;;;5071357;28;20287;-74
2024/01/20 11:13:05;;;;;;;18.63;16.63;;;9.70;89.40;;;;;;5071881;28;20774;-73
2024/01/20 11:15:32;;;;;;;18.35;16.30;;;10.50;80.60;;;;;;5054005;28;20243;-75
2024/01/20 11:18:01;;;;;;;19.08;16.88;;;10.80;74.40;;;;;;5051953;28;20599;-73
2024/01/20 11:20:30;;;;;;;19.27;17.15;;;11.00;71.50;;;;;;5052761;28;20541;-74
2024/01/20 11:22:56;;;;;;;19.17;17.17;;;11.00;69.10;;;;;;5052430;28;20198;-73
2024/01/20 11:25:32;;;;;;;19.23;17.17;;;10.60;68.60;;;;;;5052367;28;20197;-73
2024/01/20 11:27:59;;;;;;;18.45;16.55;;;9.80;65.80;;;;;;5062916;28;20231;-73
2024/01/20 11:30:27;;;;;;;16.88;15.05;;;9.80;67.80;;;;;;5089423;28;20575;-73
2024/01/20 11:32:54;;;;;;;17.77;15.88;;;8.60;66.10;;;;;;5092805;28;20200;-74
2024/01/20 11:35:21;;;;;;;17.60;14.68;;;8.40;69.40;;;;;;5092593;28;20193;-74
2024/01/20 11:37:49;;;;;;;17.45;15.38;;;9.60;68.40;;;;;;5092382;28;20605;-74
2024/01/20 11:40:15;;;;;;;17.43;15.17;;;9.30;67.10;;;;;;5092295;28;20188;-73
2024/01/20 11:42:43;;;;;;;24.20;16.70;;;8.60;66.30;;;;;;5092424;28;20246;-73
2024/01/20 11:45:11;;;;;;;19.60;14.80;;;8.70;69.60;;;;;;5092623;28;20249;-73
2024/01/20 11:47:38;;;;;;;18.93;16.40;;;8.60;66.40;;;;;;5092388;28;20308;-71
2024/01/20 11:50:06;;;;;;;19.53;14.67;;;7.70;72.50;;;;;;5086425;28;20193;-73
2024/01/20 11:52:33;;;;;;;24.10;15.73;;;8.70;69.90;;;;;;5072335;28;20201;-75
2024/01/20 11:55:00;;;;;;;19.33;15.33;;;8.60;69.10;;;;;;5072280;28;20204;-74
2024/01/20 11:57:29;;;;;;;18.63;15.20;;;9.30;69.80;;;;;;5072601;28;20205;-74
2024/01/20 11:59:58;;;;;;;20.20;15.10;;;9.10;67.20;;;;;;5072085;28;20227;-73
2024/01/20 12:02:27;;;;;;;17.17;15.37;;;9.10;65.20;;;;;;5094194;28;20667;-74
2024/01/20 12:04:55;;;;;;;17.20;15.33;;;9.20;65.80;;;;;;5112922;28;20204;-74
2024/01/20 12:07:22;;;;;;;18.13;14.20;;;9.40;65.50;;;;;;5112837;28;20249;-74
2024/01/20 12:09:49;;;;;;;16.90;14.87;;;8.50;65.50;;;;;;5112668;28;20199;-75
2024/01/20 12:12:19;;;;;;;19.63;15.00;;;8.90;66.20;;;;;;5113032;28;20195;-74
2024/01/20 12:14:46;;;;;;;18.10;14.70;;;9.60;66.20;;;;;;5113019;28;20257;-75
2024/01/20 12:17:16;;;;;;;17.90;14.87;;;10.00;60.10;;;;;;5114185;28;20253;-73
2024/01/20 12:19:43;;;;;;;15.77;13.17;;;8.90;64.90;;;;;;5102916;28;20728;-73
2024/01/20 12:22:11;;;;;;;18.23;13.90;;;10.10;61.50;;;;;;5095834;28;20196;-74
2024/01/20 12:24:38;;;;;;;16.53;14.70;;;9.40;60.80;;;;;;5096190;28;20205;-73
2024/01/20 12:27:06;;;;;;;16.53;13.90;;;11.00;59.70;;;;;;5095718;28;20232;-74
2024/01/20 12:29:33;;;;;;;15.43;13.82;;;12.90;60.30;;;;;;5095667;28;20232;-75